createdAt,value
2023-02-11T00:00:13.451Z,2.09
2023-02-11T00:01:53.208Z,2.08
2023-02-11T00:03:32.977Z,2.1
2023-02-11T00:05:12.737Z,2.1
2023-02-11T00:06:52.511Z,2.1
2023-02-11T00:08:32.253Z,2.1
2023-02-11T00:10:12.049Z,2.11
2023-02-11T00:11:51.785Z,2.11
2023-02-11T00:13:31.566Z,2.1
2023-02-11T00:15:11.337Z,2.1
2023-02-11T00:16:51.086Z,2.09
2023-02-11T00:18:30.831Z,2.08
2023-02-11T00:20:10.628Z,2.09
2023-02-11T00:21:50.376Z,2.1
2023-02-11T00:23:30.141Z,2.09
2023-02-11T00:25:09.903Z,2.1
2023-02-11T00:26:49.686Z,2.09
2023-02-11T00:28:29.428Z,2.09
2023-02-11T00:30:09.204Z,2.09
2023-02-11T00:31:48.961Z,2.11
2023-02-11T00:33:28.725Z,2.11
2023-02-11T00:35:08.469Z,2.13
2023-02-11T00:36:48.234Z,2.13
2023-02-11T00:38:28.014Z,2.11
2023-02-11T00:40:07.771Z,2.11
2023-02-11T00:41:47.529Z,2.1
2023-02-11T00:43:27.297Z,2.11
2023-02-11T00:45:07.074Z,2.15
2023-02-11T00:46:46.851Z,2.17
2023-02-11T00:48:26.607Z,2.19
2023-02-11T00:50:06.368Z,2.2
2023-02-11T00:51:46.120Z,2.25
2023-02-11T00:53:25.914Z,2.22
2023-02-11T00:55:05.651Z,2.25
2023-02-11T00:56:45.431Z,2.26
2023-02-11T00:58:25.171Z,2.28
2023-02-11T01:00:04.944Z,2.27
2023-02-11T01:01:44.705Z,2.29
2023-02-11T01:03:24.479Z,2.3
2023-02-11T01:05:04.230Z,2.31
2023-02-11T01:06:44.000Z,2.31
2023-02-11T01:08:23.763Z,2.31
2023-02-11T01:10:03.519Z,2.32
2023-02-11T01:11:43.288Z,2.32
2023-02-11T01:13:23.059Z,2.33
2023-02-11T01:15:02.850Z,2.33
2023-02-11T01:16:42.591Z,2.33
2023-02-11T01:18:22.375Z,2.34
2023-02-11T01:20:02.108Z,2.34
2023-02-11T01:21:41.878Z,2.33
2023-02-11T01:23:21.626Z,2.34
2023-02-11T01:25:01.419Z,2.33
2023-02-11T01:26:41.167Z,2.33
2023-02-11T01:28:20.919Z,2.33
2023-02-11T01:30:00.713Z,2.33
2023-02-11T01:31:40.460Z,2.32
2023-02-11T01:33:20.220Z,2.33
2023-02-11T01:34:59.990Z,2.32
2023-02-11T01:36:39.760Z,2.33
2023-02-11T01:38:19.519Z,2.32
2023-02-11T01:39:59.342Z,2.34
2023-02-11T01:41:39.049Z,2.32
2023-02-11T01:43:18.812Z,2.33
2023-02-11T01:44:58.579Z,2.33
2023-02-11T01:46:38.345Z,2.34
2023-02-11T01:48:18.104Z,2.35
2023-02-11T01:49:57.923Z,2.35
2023-02-11T01:51:37.636Z,2.36
2023-02-11T01:53:17.378Z,2.35
2023-02-11T01:54:57.152Z,2.36
2023-02-11T01:56:36.918Z,2.38
2023-02-11T01:58:16.675Z,2.39
2023-02-11T01:59:56.460Z,2.38
2023-02-11T02:01:36.206Z,2.39
2023-02-11T02:03:15.978Z,2.39
2023-02-11T02:04:55.752Z,2.41
2023-02-11T02:06:35.510Z,2.41
2023-02-11T02:08:15.247Z,2.41
2023-02-11T02:09:55.033Z,2.39
2023-02-11T02:11:34.798Z,2.42
2023-02-11T02:13:14.545Z,2.42
2023-02-11T02:14:54.310Z,2.42
2023-02-11T02:16:34.097Z,2.43
2023-02-11T02:18:13.839Z,2.42
2023-02-11T02:19:53.602Z,2.43
2023-02-11T02:21:33.384Z,2.45
2023-02-11T02:23:13.126Z,2.46
2023-02-11T02:24:52.882Z,2.47
2023-02-11T02:26:32.673Z,2.47
2023-02-11T02:28:12.411Z,2.46
2023-02-11T02:29:52.199Z,2.47
2023-02-11T02:31:31.940Z,2.48
2023-02-11T02:33:11.707Z,2.5
2023-02-11T02:34:51.506Z,2.5
2023-02-11T02:36:31.257Z,2.51
2023-02-11T02:38:11.060Z,2.53
2023-02-11T02:39:50.782Z,2.53
2023-02-11T02:41:30.536Z,2.5
2023-02-11T02:43:10.291Z,2.52
2023-02-11T02:44:50.053Z,2.53
2023-02-11T02:46:29.848Z,2.53
2023-02-11T02:48:09.602Z,2.55
2023-02-11T02:49:49.348Z,2.55
2023-02-11T02:51:29.123Z,2.56
2023-02-11T02:53:08.882Z,2.59
2023-02-11T02:54:48.646Z,2.58
2023-02-11T02:56:28.428Z,2.59
2023-02-11T02:58:08.163Z,2.59
2023-02-11T02:59:47.952Z,2.6
2023-02-11T03:01:27.692Z,2.59
2023-02-11T03:03:07.525Z,2.61
2023-02-11T03:04:47.223Z,2.62
2023-02-11T03:06:27.011Z,2.63
2023-02-11T03:08:06.744Z,2.63
2023-02-11T03:09:46.525Z,2.64
2023-02-11T03:11:26.275Z,2.64
2023-02-11T03:13:06.038Z,2.65
2023-02-11T03:14:45.831Z,2.65
2023-02-11T03:16:25.584Z,2.65
2023-02-11T03:18:05.387Z,2.64
2023-02-11T03:19:45.114Z,2.67
2023-02-11T03:21:24.857Z,2.69
2023-02-11T03:24:44.430Z,2.68
2023-02-11T03:26:24.158Z,2.7
2023-02-11T03:28:03.922Z,2.71
2023-02-11T03:29:43.696Z,2.71
2023-02-11T03:31:23.454Z,2.72
2023-02-11T03:33:03.201Z,2.73
2023-02-11T03:34:42.961Z,2.72
2023-02-11T03:36:22.738Z,2.71
2023-02-11T03:38:02.513Z,2.73
2023-02-11T03:39:42.282Z,2.74
2023-02-11T03:41:22.034Z,2.75
2023-02-11T03:43:01.826Z,2.74
2023-02-11T03:44:41.545Z,2.77
2023-02-11T03:46:21.316Z,2.77
2023-02-11T03:48:01.081Z,2.77
2023-02-11T03:49:40.856Z,2.77
2023-02-11T03:51:20.615Z,2.77
2023-02-11T03:53:00.377Z,2.77
2023-02-11T03:54:40.140Z,2.77
2023-02-11T03:56:19.930Z,2.75
2023-02-11T03:57:59.764Z,2.77
2023-02-11T03:59:39.435Z,2.79
2023-02-11T04:01:19.206Z,2.78
2023-02-11T04:02:58.972Z,2.78
2023-02-11T04:04:38.732Z,2.79
2023-02-11T04:06:18.521Z,2.79
2023-02-11T04:07:58.244Z,2.79
2023-02-11T04:09:38.043Z,2.81
2023-02-11T04:11:17.772Z,2.82
2023-02-11T04:12:57.568Z,2.82
2023-02-11T04:14:37.306Z,2.84
2023-02-11T04:16:17.071Z,2.83
2023-02-11T04:17:56.836Z,2.85
2023-02-11T04:19:36.601Z,2.84
2023-02-11T04:21:16.374Z,2.86
2023-02-11T04:22:56.127Z,2.85
2023-02-11T04:24:35.897Z,2.87
2023-02-11T04:26:15.658Z,2.9
2023-02-11T04:27:55.437Z,2.88
2023-02-11T04:29:35.179Z,2.92
2023-02-11T04:31:14.941Z,2.91
2023-02-11T04:32:54.773Z,2.94
2023-02-11T04:34:34.466Z,2.92
2023-02-11T04:36:14.236Z,2.92
2023-02-11T04:37:54.003Z,2.94
2023-02-11T04:39:33.770Z,2.92
2023-02-11T04:41:13.529Z,2.94
2023-02-11T04:42:53.292Z,2.98
2023-02-11T04:44:33.066Z,2.97
2023-02-11T04:46:12.838Z,2.98
2023-02-11T04:47:52.577Z,3
2023-02-11T04:49:32.343Z,3.01
2023-02-11T04:51:12.127Z,3
2023-02-11T04:52:52.114Z,3.02
2023-02-11T04:54:31.644Z,3.02
2023-02-11T04:56:11.418Z,3.01
2023-02-11T04:57:51.166Z,3.05
2023-02-11T04:59:30.934Z,3.06
2023-02-11T05:01:10.710Z,3.07
2023-02-11T05:02:50.474Z,3.08
2023-02-11T05:04:30.226Z,3.09
2023-02-11T05:06:09.991Z,3.09
2023-02-11T05:07:49.746Z,3.09
2023-02-11T05:09:29.516Z,3.1
2023-02-11T05:11:09.291Z,3.11
2023-02-11T05:12:49.031Z,3.12
2023-02-11T05:14:28.799Z,3.14
2023-02-11T05:16:08.775Z,3.12
2023-02-11T05:17:48.336Z,3.14
2023-02-11T05:19:28.096Z,3.14
2023-02-11T05:21:07.856Z,3.16
2023-02-11T05:22:47.642Z,3.16
2023-02-11T05:24:27.393Z,3.18
2023-02-11T05:26:07.154Z,3.17
2023-02-11T05:27:46.922Z,3.18
2023-02-11T05:29:26.697Z,3.19
2023-02-11T05:31:06.452Z,3.2
2023-02-11T05:32:46.223Z,3.22
2023-02-11T05:34:25.992Z,3.23
2023-02-11T05:36:05.725Z,3.24
2023-02-11T05:37:45.491Z,3.25
2023-02-11T05:39:25.294Z,3.25
2023-02-11T05:41:05.023Z,3.27
2023-02-11T05:42:44.785Z,3.28
2023-02-11T05:44:24.548Z,3.29
2023-02-11T05:46:04.304Z,3.29
2023-02-11T05:47:44.094Z,3.31
2023-02-11T05:49:23.849Z,3.32
2023-02-11T05:51:03.619Z,3.31
2023-02-11T05:52:43.371Z,3.3
2023-02-11T05:54:23.142Z,3.31
2023-02-11T05:56:02.915Z,3.34
2023-02-11T05:57:42.695Z,3.35
2023-02-11T05:59:22.419Z,3.35
2023-02-11T06:01:02.223Z,3.35
2023-02-11T06:02:41.952Z,3.38
2023-02-11T06:04:21.720Z,3.38
2023-02-11T06:06:01.481Z,3.39
2023-02-11T06:07:41.353Z,3.4
2023-02-11T06:09:20.997Z,3.4
2023-02-11T06:11:00.829Z,3.42
2023-02-11T06:12:40.530Z,3.42
2023-02-11T06:14:20.312Z,3.42
2023-02-11T06:16:00.059Z,3.44
2023-02-11T06:17:39.822Z,3.44
2023-02-11T06:19:19.590Z,3.43
2023-02-11T06:20:59.357Z,3.46
2023-02-11T06:22:39.112Z,3.46
2023-02-11T06:24:18.893Z,3.47
2023-02-11T06:25:58.661Z,3.45
2023-02-11T06:27:38.418Z,3.48
2023-02-11T06:30:57.942Z,3.47
2023-02-11T06:32:37.717Z,3.49
2023-02-11T06:34:17.473Z,3.51
2023-02-11T06:35:57.236Z,3.51
2023-02-11T06:37:36.988Z,3.52
2023-02-11T06:39:16.765Z,3.54
2023-02-11T06:40:56.541Z,3.53
2023-02-11T06:42:36.285Z,3.53
2023-02-11T06:44:16.042Z,3.55
2023-02-11T06:45:55.841Z,3.56
2023-02-11T06:47:35.580Z,3.57
2023-02-11T06:49:15.349Z,3.58
2023-02-11T06:50:55.102Z,3.58
2023-02-11T06:52:34.896Z,3.59
2023-02-11T06:54:14.662Z,3.59
2023-02-11T06:55:54.392Z,3.6
2023-02-11T06:57:34.169Z,3.63
2023-02-11T06:59:13.918Z,3.64
2023-02-11T07:00:53.693Z,3.65
2023-02-11T07:02:33.444Z,3.65
2023-02-11T07:04:13.228Z,3.64
2023-02-11T07:05:52.971Z,3.66
2023-02-11T07:07:32.746Z,3.66
2023-02-11T07:09:12.600Z,3.69
2023-02-11T07:10:52.265Z,3.67
2023-02-11T07:12:32.070Z,3.7
2023-02-11T07:14:11.812Z,3.69
2023-02-11T07:15:51.560Z,3.69
2023-02-11T07:17:31.334Z,3.71
2023-02-11T07:19:11.098Z,3.74
2023-02-11T07:20:50.863Z,3.74
2023-02-11T07:22:30.625Z,3.74
2023-02-11T07:24:10.377Z,3.76
2023-02-11T07:25:50.132Z,3.7
2023-02-11T07:27:29.906Z,3.81
2023-02-11T07:30:49.443Z,3.81
2023-02-11T07:32:29.271Z,3.82
2023-02-11T07:34:08.962Z,3.84
2023-02-11T07:35:48.728Z,3.87
2023-02-11T07:37:28.483Z,3.87
2023-02-11T07:39:08.260Z,3.9
2023-02-11T07:40:48.022Z,3.94
2023-02-11T07:42:27.779Z,3.9
2023-02-11T07:44:07.549Z,3.96
2023-02-11T07:45:47.308Z,3.97
2023-02-11T07:47:27.083Z,3.99
2023-02-11T07:49:06.864Z,4
2023-02-11T07:50:46.626Z,4.02
2023-02-11T07:52:26.363Z,4.04
2023-02-11T07:54:06.144Z,4.04
2023-02-11T07:57:25.660Z,4.05
2023-02-11T07:59:05.430Z,4.07
2023-02-11T08:00:45.191Z,4.13
2023-02-11T08:02:24.960Z,4.11
2023-02-11T08:04:04.746Z,4.11
2023-02-11T08:05:44.486Z,4.14
2023-02-11T08:07:24.256Z,4.13
2023-02-11T08:09:04.089Z,4.14
2023-02-11T08:10:43.771Z,4.17
2023-02-11T08:12:23.543Z,4.15
2023-02-11T08:14:03.319Z,4.17
2023-02-11T08:15:43.082Z,4.19
2023-02-11T08:17:22.826Z,4.17
2023-02-11T08:19:02.669Z,4.21
2023-02-11T08:20:42.337Z,4.21
2023-02-11T08:22:22.114Z,4.26
2023-02-11T08:24:01.886Z,4.25
2023-02-11T08:25:41.650Z,4.29
2023-02-11T08:27:21.404Z,4.33
2023-02-11T08:29:01.168Z,4.33
2023-02-11T08:30:40.961Z,4.32
2023-02-11T08:32:20.724Z,4.36
2023-02-11T08:34:00.451Z,4.37
2023-02-11T08:35:40.251Z,4.37
2023-02-11T08:37:19.992Z,4.37
2023-02-11T08:38:59.747Z,4.39
2023-02-11T08:40:39.504Z,4.4
2023-02-11T08:42:19.288Z,4.42
2023-02-11T08:43:59.119Z,4.44
2023-02-11T08:45:38.812Z,4.44
2023-02-11T08:47:18.696Z,4.44
2023-02-11T08:48:58.370Z,4.44
2023-02-11T08:50:38.086Z,4.48
2023-02-11T08:52:17.870Z,4.5
2023-02-11T08:53:57.623Z,4.48
2023-02-11T08:55:37.396Z,4.51
2023-02-11T08:57:17.168Z,4.48
2023-02-11T08:58:56.925Z,4.57
2023-02-11T09:00:36.713Z,4.52
2023-02-11T09:02:16.451Z,4.58
2023-02-11T09:03:56.206Z,4.58
2023-02-11T09:05:36.001Z,4.57
2023-02-11T09:07:15.745Z,4.6
2023-02-11T09:08:55.498Z,4.62
2023-02-11T09:10:35.261Z,4.63
2023-02-11T09:12:15.040Z,4.64
2023-02-11T09:13:54.806Z,4.67
2023-02-11T09:15:34.570Z,4.67
2023-02-11T09:17:14.310Z,4.67
2023-02-11T09:18:54.096Z,4.71
2023-02-11T09:20:33.846Z,4.73
2023-02-11T09:22:13.601Z,4.73
2023-02-11T09:23:53.369Z,4.75
2023-02-11T09:25:33.159Z,4.77
2023-02-11T09:27:12.956Z,4.78
2023-02-11T09:28:52.667Z,4.76
2023-02-11T09:30:32.433Z,4.8
2023-02-11T09:32:12.198Z,4.79
2023-02-11T09:33:51.954Z,4.82
2023-02-11T09:35:31.727Z,4.81
2023-02-11T09:37:11.474Z,4.85
2023-02-11T09:38:51.239Z,4.87
2023-02-11T09:40:31.021Z,4.88
2023-02-11T09:42:10.784Z,4.87
2023-02-11T09:43:50.538Z,4.89
2023-02-11T09:45:30.368Z,4.92
2023-02-11T09:47:10.077Z,4.91
2023-02-11T09:48:49.836Z,4.89
2023-02-11T09:50:29.609Z,4.92
2023-02-11T09:52:09.385Z,4.96
2023-02-11T09:53:49.174Z,4.94
2023-02-11T09:55:28.913Z,4.96
2023-02-11T09:57:08.659Z,4.98
2023-02-11T09:58:48.416Z,4.98
2023-02-11T10:00:28.181Z,5
2023-02-11T10:02:07.956Z,5.01
2023-02-11T10:03:47.707Z,5.01
2023-02-11T10:05:27.523Z,5.03
2023-02-11T10:07:07.239Z,5.02
2023-02-11T10:08:46.999Z,5.03
2023-02-11T10:10:26.761Z,5.06
2023-02-11T10:12:06.517Z,5.05
2023-02-11T10:13:46.295Z,5.08
2023-02-11T10:15:26.068Z,5.11
2023-02-11T10:17:05.827Z,5.13
2023-02-11T10:18:45.590Z,5.13
2023-02-11T10:20:25.465Z,5.15
2023-02-11T10:22:05.120Z,5.16
2023-02-11T10:23:44.886Z,5.17
2023-02-11T10:25:24.652Z,5.15
2023-02-11T10:27:04.399Z,5.18
2023-02-11T10:28:44.169Z,5.18
2023-02-11T10:30:23.930Z,5.18
2023-02-11T10:32:03.702Z,5.11
2023-02-11T10:33:43.456Z,5.2
2023-02-11T10:35:23.214Z,5.2
2023-02-11T10:37:02.978Z,5.18
2023-02-11T10:38:42.752Z,5.19
2023-02-11T10:40:22.522Z,5.2
2023-02-11T10:42:02.305Z,5.2
2023-02-11T10:43:42.063Z,5.2
2023-02-11T10:45:21.808Z,5.2
2023-02-11T10:47:01.600Z,5.23
2023-02-11T10:48:41.345Z,5.23
2023-02-11T10:50:21.092Z,5.23
2023-02-11T10:52:00.863Z,5.24
2023-02-11T10:53:40.622Z,5.23
2023-02-11T10:55:20.391Z,5.25
2023-02-11T10:57:00.162Z,5.26
2023-02-11T10:58:39.936Z,5.26
2023-02-11T11:00:19.669Z,5.29
2023-02-11T11:01:59.446Z,5.32
2023-02-11T11:03:39.332Z,5.29
2023-02-11T11:05:18.973Z,5.3
2023-02-11T11:06:58.900Z,5.32
2023-02-11T11:08:38.707Z,5.34
2023-02-11T11:10:18.427Z,5.35
2023-02-11T11:11:58.127Z,5.32
2023-02-11T11:13:37.955Z,5.34
2023-02-11T11:15:17.738Z,5.38
2023-02-11T11:16:57.516Z,5.37
2023-02-11T11:18:37.290Z,5.38
2023-02-11T11:20:17.023Z,5.37
2023-02-11T11:21:56.798Z,5.36
2023-02-11T11:23:36.397Z,5.38
2023-02-11T11:25:16.350Z,5.38
2023-02-11T11:26:56.037Z,5.38
2023-02-11T11:30:15.483Z,5.41
2023-02-11T11:31:55.257Z,5.39
2023-02-11T11:33:35.030Z,5.38
2023-02-11T11:35:14.757Z,5.4
2023-02-11T11:36:54.497Z,5.38
2023-02-11T11:38:34.288Z,5.4
2023-02-11T11:40:14.053Z,5.38
2023-02-11T11:41:53.805Z,5.42
2023-02-11T11:43:33.564Z,5.42
2023-02-11T11:45:13.345Z,5.44
2023-02-11T11:46:53.081Z,5.44
2023-02-11T11:48:32.841Z,5.41
2023-02-11T11:50:12.704Z,5.44
2023-02-11T11:51:52.376Z,5.46
2023-02-11T11:53:32.141Z,5.45
2023-02-11T11:55:11.908Z,5.48
2023-02-11T11:56:51.659Z,5.5
2023-02-11T11:58:31.432Z,5.46
2023-02-11T12:00:11.185Z,5.49
2023-02-11T12:01:50.949Z,5.5
2023-02-11T12:03:30.726Z,5.49
2023-02-11T12:05:10.514Z,5.5
2023-02-11T12:06:50.260Z,5.51
2023-02-11T12:08:30.062Z,5.51
2023-02-11T12:10:09.789Z,5.51
2023-02-11T12:11:49.539Z,5.56
2023-02-11T12:13:29.307Z,5.53
2023-02-11T12:15:09.078Z,5.55
2023-02-11T12:16:48.832Z,5.56
2023-02-11T12:18:28.600Z,5.58
2023-02-11T12:20:08.351Z,5.55
2023-02-11T12:21:48.131Z,5.59
2023-02-11T12:23:27.890Z,5.62
2023-02-11T12:25:07.663Z,5.64
2023-02-11T12:26:47.411Z,5.63
2023-02-11T12:28:27.168Z,5.64
2023-02-11T12:31:46.706Z,5.66
2023-02-11T12:33:26.473Z,5.66
2023-02-11T12:35:06.309Z,5.68
2023-02-11T12:36:46.014Z,5.69
2023-02-11T12:38:25.775Z,5.7
2023-02-11T12:40:05.518Z,5.7
2023-02-11T12:41:45.295Z,5.73
2023-02-11T12:43:25.056Z,5.72
2023-02-11T12:45:04.854Z,5.7
2023-02-11T12:46:44.592Z,5.75
2023-02-11T12:48:24.339Z,5.75
2023-02-11T12:50:04.114Z,5.75
2023-02-11T12:51:43.893Z,5.76
2023-02-11T12:53:23.648Z,5.77
2023-02-11T12:55:03.413Z,5.75
2023-02-11T12:56:43.175Z,5.77
2023-02-11T12:58:22.940Z,5.8
2023-02-11T13:00:02.710Z,5.82
2023-02-11T13:01:42.454Z,5.8
2023-02-11T13:03:22.232Z,5.79
2023-02-11T13:05:02.035Z,5.8
2023-02-11T13:06:41.757Z,5.85
2023-02-11T13:08:21.511Z,5.82
2023-02-11T13:10:01.283Z,5.81
2023-02-11T13:11:41.040Z,5.84
2023-02-11T13:13:20.811Z,5.84
2023-02-11T13:15:00.575Z,5.8
2023-02-11T13:16:40.331Z,5.84
2023-02-11T13:18:20.097Z,5.84
2023-02-11T13:19:59.854Z,5.83
2023-02-11T13:21:39.625Z,5.86
2023-02-11T13:23:19.386Z,5.87
2023-02-11T13:24:59.175Z,5.87
2023-02-11T13:26:38.928Z,5.87
2023-02-11T13:28:18.683Z,5.85
2023-02-11T13:29:58.514Z,5.89
2023-02-11T13:31:38.209Z,5.88
2023-02-11T13:33:17.966Z,5.81
2023-02-11T13:36:37.493Z,5.94
2023-02-11T13:38:17.256Z,5.91
2023-02-11T13:39:57.036Z,5.81
2023-02-11T13:41:36.803Z,5.92
2023-02-11T13:43:16.557Z,5.92
2023-02-11T13:44:56.331Z,5.92
2023-02-11T13:46:36.080Z,5.93
2023-02-11T13:48:15.856Z,5.93
2023-02-11T13:49:55.625Z,5.94
2023-02-11T13:51:35.379Z,5.94
2023-02-11T13:53:15.149Z,5.98
2023-02-11T13:54:54.890Z,5.93
2023-02-11T13:58:14.433Z,5.97
2023-02-11T13:59:54.261Z,5.96
2023-02-11T14:01:33.942Z,5.96
2023-02-11T14:03:13.725Z,5.95
2023-02-11T14:04:53.544Z,5.97
2023-02-11T14:06:33.256Z,6
2023-02-11T14:08:13.012Z,5.94
2023-02-11T14:09:52.777Z,5.97
2023-02-11T14:11:32.528Z,5.99
2023-02-11T14:13:12.313Z,6
2023-02-11T14:14:52.085Z,5.99
2023-02-11T14:16:31.839Z,5.89
2023-02-11T14:19:51.360Z,6
2023-02-11T14:21:31.135Z,5.99
2023-02-11T14:23:10.886Z,5.93
2023-02-11T14:24:50.676Z,6
2023-02-11T14:26:30.427Z,6.02
2023-02-11T14:29:49.936Z,6
2023-02-11T14:31:29.721Z,6.04
2023-02-11T14:33:09.477Z,6.07
2023-02-11T14:34:49.250Z,6.04
2023-02-11T14:36:29.019Z,6.03
2023-02-11T14:38:08.759Z,6.04
2023-02-11T14:39:48.522Z,6.05
2023-02-11T14:41:28.341Z,6.06
2023-02-11T14:43:08.059Z,6.05
2023-02-11T14:44:47.819Z,6.05
2023-02-11T14:46:27.589Z,6.03
2023-02-11T14:49:47.100Z,6.06
2023-02-11T14:51:26.861Z,6.08
2023-02-11T14:53:06.641Z,6.04
2023-02-11T14:54:46.421Z,6.07
2023-02-11T14:56:26.171Z,6.08
2023-02-11T14:59:45.693Z,6.11
2023-02-11T15:01:25.482Z,6.09
2023-02-11T15:03:05.215Z,6.1
2023-02-11T15:04:44.997Z,6.13
2023-02-11T15:06:24.740Z,6.11
2023-02-11T15:08:04.513Z,6.11
2023-02-11T15:09:44.381Z,6.11
2023-02-11T15:11:24.027Z,6.09
2023-02-11T15:13:03.813Z,6.15
2023-02-11T15:14:43.568Z,6.19
2023-02-11T15:16:23.385Z,6.15
2023-02-11T15:18:03.092Z,6.14
2023-02-11T15:19:42.859Z,6.1
2023-02-11T15:21:22.617Z,6.12
2023-02-11T15:23:02.388Z,6.12
2023-02-11T15:24:42.143Z,6.16
2023-02-11T15:26:21.916Z,6.12
2023-02-11T15:28:01.677Z,6.16
2023-02-11T15:29:41.431Z,6.16
2023-02-11T15:31:21.201Z,6.17
2023-02-11T15:33:00.963Z,6.17
2023-02-11T15:34:40.737Z,6.18
2023-02-11T15:36:20.508Z,6.19
2023-02-11T15:38:00.285Z,6.19
2023-02-11T15:39:40.018Z,6.2
2023-02-11T15:41:19.784Z,6.18
2023-02-11T15:42:59.554Z,6.2
2023-02-11T15:44:39.322Z,6.2
2023-02-11T15:46:19.092Z,6.2
2023-02-11T15:47:58.855Z,6.21
2023-02-11T15:49:38.613Z,6.21
2023-02-11T15:51:18.374Z,6.16
2023-02-11T15:52:58.185Z,6.16
2023-02-11T15:54:37.928Z,6.2
2023-02-11T15:56:17.654Z,6.2
2023-02-11T15:57:57.437Z,6.22
2023-02-11T15:59:37.194Z,6.23
2023-02-11T16:01:17.023Z,6.24
2023-02-11T16:02:56.716Z,6.22
2023-02-11T16:04:36.488Z,6.23
2023-02-11T16:06:16.241Z,6.22
2023-02-11T16:07:56.016Z,6.25
2023-02-11T16:09:35.779Z,6.23
2023-02-11T16:11:15.533Z,6.27
2023-02-11T16:12:55.336Z,6.24
2023-02-11T16:14:35.090Z,6.25
2023-02-11T16:16:14.825Z,6.25
2023-02-11T16:17:54.608Z,6.26
2023-02-11T16:19:34.362Z,6.26
2023-02-11T16:21:14.124Z,6.25
2023-02-11T16:22:54.026Z,6.23
2023-02-11T16:24:33.665Z,6.27
2023-02-11T16:26:13.409Z,6.28
2023-02-11T16:27:53.178Z,6.26
2023-02-11T16:29:32.940Z,6.27
2023-02-11T16:31:12.697Z,6.28
2023-02-11T16:32:52.477Z,6.29
2023-02-11T16:34:32.256Z,6.27
2023-02-11T16:36:11.999Z,6.27
2023-02-11T16:37:51.751Z,6.3
2023-02-11T16:41:11.295Z,6.31
2023-02-11T16:42:51.054Z,6.3
2023-02-11T16:44:30.830Z,6.3
2023-02-11T16:46:10.566Z,6.29
2023-02-11T16:47:50.348Z,6.32
2023-02-11T16:49:30.085Z,6.31
2023-02-11T16:51:09.858Z,6.32
2023-02-11T16:52:49.639Z,6.33
2023-02-11T16:54:29.408Z,6.32
2023-02-11T16:57:48.939Z,6.35
2023-02-11T16:59:28.757Z,6.33
2023-02-11T17:01:08.473Z,6.34
2023-02-11T17:02:48.224Z,6.35
2023-02-11T17:04:27.978Z,6.34
2023-02-11T17:06:07.761Z,6.34
2023-02-11T17:07:47.530Z,6.33
2023-02-11T17:09:27.269Z,6.34
2023-02-11T17:11:07.060Z,6.35
2023-02-11T17:12:46.853Z,6.35
2023-02-11T17:14:26.606Z,6.37
2023-02-11T17:16:06.313Z,6.36
2023-02-11T17:17:46.132Z,6.37
2023-02-11T17:19:25.846Z,6.38
2023-02-11T17:21:05.629Z,6.35
2023-02-11T17:22:45.397Z,6.37
2023-02-11T17:24:25.146Z,6.35
2023-02-11T17:26:04.906Z,6.37
2023-02-11T17:27:44.669Z,6.37
2023-02-11T17:31:04.189Z,6.39
2023-02-11T17:32:43.956Z,6.39
2023-02-11T17:34:23.736Z,6.39
2023-02-11T17:36:03.479Z,6.4
2023-02-11T17:37:43.247Z,6.4
2023-02-11T17:39:23.087Z,6.4
2023-02-11T17:41:02.797Z,6.4
2023-02-11T17:42:42.562Z,6.43
2023-02-11T17:44:22.309Z,6.42
2023-02-11T17:46:02.062Z,6.42
2023-02-11T17:47:41.824Z,6.42
2023-02-11T17:49:21.594Z,6.42
2023-02-11T17:51:01.385Z,6.42
2023-02-11T17:52:41.104Z,6.43
2023-02-11T17:54:20.892Z,6.42
2023-02-11T17:56:00.646Z,6.42
2023-02-11T17:57:40.409Z,6.42
2023-02-11T17:59:20.200Z,6.42
2023-02-11T18:00:59.964Z,6.42
2023-02-11T18:02:39.706Z,6.42
2023-02-11T18:04:19.479Z,6.41
2023-02-11T18:05:59.241Z,6.45
2023-02-11T18:07:39.004Z,6.43
2023-02-11T18:09:18.859Z,6.42
2023-02-11T18:10:58.530Z,6.42
2023-02-11T18:12:38.315Z,6.45
2023-02-11T18:14:18.085Z,6.44
2023-02-11T18:15:57.830Z,6.41
2023-02-11T18:17:37.593Z,6.45
2023-02-11T18:19:17.401Z,6.45
2023-02-11T18:20:57.110Z,6.44
2023-02-11T18:22:36.964Z,6.45
2023-02-11T18:24:16.644Z,6.46
2023-02-11T18:25:56.411Z,6.46
2023-02-11T18:27:36.158Z,6.46
2023-02-11T18:29:15.947Z,6.45
2023-02-11T18:30:55.688Z,6.47
2023-02-11T18:32:35.458Z,6.46
2023-02-11T18:34:15.227Z,6.46
2023-02-11T18:35:54.993Z,6.46
2023-02-11T18:37:34.761Z,6.47
2023-02-11T18:39:14.526Z,6.47
2023-02-11T18:40:54.291Z,6.5
2023-02-11T18:42:34.078Z,6.47
2023-02-11T18:44:13.842Z,6.48
2023-02-11T18:45:53.586Z,6.5
2023-02-11T18:47:33.347Z,6.5
2023-02-11T18:49:13.123Z,6.51
2023-02-11T18:50:52.864Z,6.52
2023-02-11T18:52:32.630Z,6.52
2023-02-11T18:54:12.406Z,6.54
2023-02-11T18:55:52.165Z,6.53
2023-02-11T18:57:31.983Z,6.54
2023-02-11T18:59:11.709Z,6.54
2023-02-11T19:00:51.465Z,6.56
2023-02-11T19:02:31.225Z,6.55
2023-02-11T19:04:11.020Z,6.56
2023-02-11T19:05:50.750Z,6.58
2023-02-11T19:07:30.502Z,6.58
2023-02-11T19:09:10.282Z,6.56
2023-02-11T19:10:50.049Z,6.59
2023-02-11T19:12:29.803Z,6.58
2023-02-11T19:14:09.546Z,6.57
2023-02-11T19:15:49.344Z,6.56
2023-02-11T19:17:29.101Z,6.56
2023-02-11T19:19:08.860Z,6.55
2023-02-11T19:20:48.620Z,6.55
2023-02-11T19:22:28.413Z,6.55
2023-02-11T19:24:08.137Z,6.56
2023-02-11T19:25:47.933Z,6.57
2023-02-11T19:27:27.669Z,6.57
2023-02-11T19:29:07.424Z,6.59
2023-02-11T19:30:47.185Z,6.59
2023-02-11T19:32:26.963Z,6.59
2023-02-11T19:34:06.726Z,6.6
2023-02-11T19:35:46.493Z,6.6
2023-02-11T19:37:26.251Z,6.62
2023-02-11T19:39:06.023Z,6.62
2023-02-11T19:40:45.786Z,6.62
2023-02-11T19:42:25.553Z,6.62
2023-02-11T19:44:05.312Z,6.62
2023-02-11T19:45:45.068Z,6.62
2023-02-11T19:47:24.832Z,6.62
2023-02-11T19:49:04.661Z,6.61
2023-02-11T19:50:44.374Z,6.59
2023-02-11T19:52:24.138Z,6.6
2023-02-11T19:54:03.886Z,6.6
2023-02-11T19:55:43.669Z,6.59
2023-02-11T19:57:23.429Z,6.6
2023-02-11T19:59:03.185Z,6.57
2023-02-11T20:00:42.945Z,6.57
2023-02-11T20:02:22.706Z,6.56
2023-02-11T20:04:02.479Z,6.55
2023-02-11T20:05:42.233Z,6.54
2023-02-11T20:07:22.012Z,6.55
2023-02-11T20:09:01.833Z,6.54
2023-02-11T20:10:41.520Z,6.53
2023-02-11T20:12:21.283Z,6.54
2023-02-11T20:14:01.055Z,6.53
2023-02-11T20:15:40.814Z,6.56
2023-02-11T20:17:20.611Z,6.55
2023-02-11T20:19:00.345Z,6.57
2023-02-11T20:20:40.103Z,6.58
2023-02-11T20:22:20.362Z,6.57
2023-02-11T20:23:59.628Z,6.58
2023-02-11T20:25:39.394Z,6.58
2023-02-11T20:27:19.188Z,6.59
2023-02-11T20:28:58.940Z,6.6
2023-02-11T20:30:38.694Z,6.61
2023-02-11T20:32:18.445Z,6.62
2023-02-11T20:33:58.320Z,6.6
2023-02-11T20:35:37.993Z,6.62
2023-02-11T20:37:17.872Z,6.62
2023-02-11T20:38:57.510Z,6.62
2023-02-11T20:40:37.275Z,6.61
2023-02-11T20:42:17.058Z,6.61
2023-02-11T20:43:56.792Z,6.61
2023-02-11T20:45:36.575Z,6.62
2023-02-11T20:47:16.381Z,6.61
2023-02-11T20:48:56.087Z,6.62
2023-02-11T20:50:35.896Z,6.64
2023-02-11T20:52:15.623Z,6.63
2023-02-11T20:53:55.396Z,6.65
2023-02-11T20:55:35.140Z,6.64
2023-02-11T20:57:14.921Z,6.65
2023-02-11T20:58:54.675Z,6.67
2023-02-11T21:00:34.431Z,6.67
2023-02-11T21:02:14.214Z,6.66
2023-02-11T21:03:53.979Z,6.66
2023-02-11T21:05:33.739Z,6.67
2023-02-11T21:07:13.527Z,6.64
2023-02-11T21:08:53.271Z,6.67
2023-02-11T21:10:33.069Z,6.65
2023-02-11T21:12:12.788Z,6.65
2023-02-11T21:13:52.558Z,6.66
2023-02-11T21:15:32.322Z,6.68
2023-02-11T21:17:12.087Z,6.7
2023-02-11T21:18:51.834Z,6.7
2023-02-11T21:20:31.651Z,6.7
2023-02-11T21:22:11.375Z,6.68
2023-02-11T21:23:51.164Z,6.69
2023-02-11T21:25:30.907Z,6.7
2023-02-11T21:27:10.673Z,6.71
2023-02-11T21:28:50.436Z,6.7
2023-02-11T21:30:30.201Z,6.68
2023-02-11T21:32:09.957Z,6.7
2023-02-11T21:33:49.773Z,6.68
2023-02-11T21:35:29.549Z,6.67
2023-02-11T21:37:09.241Z,6.7
2023-02-11T21:38:49.018Z,6.7
2023-02-11T21:40:28.786Z,6.7
2023-02-11T21:42:08.530Z,6.71
2023-02-11T21:43:48.305Z,6.71
2023-02-11T21:45:28.117Z,6.72
2023-02-11T21:47:07.849Z,6.71
2023-02-11T21:48:47.606Z,6.72
2023-02-11T21:50:27.362Z,6.71
2023-02-11T21:52:07.198Z,6.72
2023-02-11T21:53:46.894Z,6.72
2023-02-11T21:55:26.643Z,6.73
2023-02-11T21:57:06.420Z,6.71
2023-02-11T21:58:46.201Z,6.7
2023-02-11T22:00:25.980Z,6.72
2023-02-11T22:02:05.711Z,6.7
2023-02-11T22:03:45.510Z,6.72
2023-02-11T22:05:25.291Z,6.71
2023-02-11T22:07:05.012Z,6.72
2023-02-11T22:08:44.780Z,6.72
2023-02-11T22:10:24.529Z,6.72
2023-02-11T22:12:04.294Z,6.7
2023-02-11T22:13:44.072Z,6.71
2023-02-11T22:15:23.894Z,6.67
2023-02-11T22:17:03.601Z,6.7
2023-02-11T22:18:43.368Z,6.7
2023-02-11T22:20:23.107Z,6.69
2023-02-11T22:22:02.881Z,6.67
2023-02-11T22:23:42.760Z,6.7
2023-02-11T22:25:22.490Z,6.7
2023-02-11T22:27:02.182Z,6.7
2023-02-11T22:28:41.943Z,6.7
2023-02-11T22:30:21.712Z,6.71
2023-02-11T22:32:01.480Z,6.7
2023-02-11T22:33:41.228Z,6.7
2023-02-11T22:35:21.035Z,6.7
2023-02-11T22:37:00.755Z,6.71
2023-02-11T22:38:40.511Z,6.72